Terminal Aerodrome Forecast
Issued by NWS Greer, SC

Home | Current Version | Previous Version | Text Only | Print | Product List | Glossary On
Versions: 1 2 3 4 5 6 7 8 9 10 11 12 13 14 15 16 17
031
FTUS42 KGSP 270520
TAFGSP
TAF
KGSP 270520Z 2706/2806 22003KT P6SM SKC
     FM271800 21007KT P6SM SCT060 SCT250 PROB30 2719/2723 4SM -TSRA
      BKN060CB BKN120 BKN200
     FM280200 23004KT P6SM SCT060=

USA.gov is the U.S. government's official web portal to all federal, state and local government web resources and services.